sensor_id;sensor_type;location;lat;lon;timestamp;P1;durP1;ratioP1;P2;durP2;ratioP2
73084;SDS011;62974;49.460;10.892;2023-08-06T00:00:09;2.95;;;1.88;;
73084;SDS011;62974;49.460;10.892;2023-08-06T00:02:37;3.40;;;1.85;;
73084;SDS011;62974;49.460;10.892;2023-08-06T00:05:05;2.45;;;1.77;;
73084;SDS011;62974;49.460;10.892;2023-08-06T00:07:33;3.17;;;2.03;;
73084;SDS011;62974;49.460;10.892;2023-08-06T00:10:01;3.50;;;1.63;;
73084;SDS011;62974;49.460;10.892;2023-08-06T00:12:30;4.15;;;1.73;;
73084;SDS011;62974;49.460;10.892;2023-08-06T00:14:57;2.10;;;1.48;;
73084;SDS011;62974;49.460;10.892;2023-08-06T00:17:25;2.85;;;2.00;;
73084;SDS011;62974;49.460;10.892;2023-08-06T00:19:52;2.90;;;1.77;;
73084;SDS011;62974;49.460;10.892;2023-08-06T00:22:20;3.50;;;1.80;;
73084;SDS011;62974;49.460;10.892;2023-08-06T00:24:47;4.03;;;1.90;;
73084;SDS011;62974;49.460;10.892;2023-08-06T00:27:15;2.60;;;1.50;;
73084;SDS011;62974;49.460;10.892;2023-08-06T00:29:44;3.70;;;1.83;;
73084;SDS011;62974;49.460;10.892;2023-08-06T00:32:11;3.60;;;1.60;;
73084;SDS011;62974;49.460;10.892;2023-08-06T00:34:39;4.30;;;1.77;;
73084;SDS011;62974;49.460;10.892;2023-08-06T00:37:06;4.25;;;1.48;;
73084;SDS011;62974;49.460;10.892;2023-08-06T00:39:34;6.95;;;2.28;;
73084;SDS011;62974;49.460;10.892;2023-08-06T00:42:01;3.97;;;1.48;;
73084;SDS011;62974;49.460;10.892;2023-08-06T00:44:29;2.45;;;1.38;;
73084;SDS011;62974;49.460;10.892;2023-08-06T00:46:58;1.90;;;1.25;;
73084;SDS011;62974;49.460;10.892;2023-08-06T00:49:26;1.90;;;1.40;;
73084;SDS011;62974;49.460;10.892;2023-08-06T00:51:54;2.28;;;1.35;;
73084;SDS011;62974;49.460;10.892;2023-08-06T00:54:22;2.55;;;1.27;;
73084;SDS011;62974;49.460;10.892;2023-08-06T00:56:51;1.88;;;1.13;;
73084;SDS011;62974;49.460;10.892;2023-08-06T00:59:18;2.90;;;1.38;;
73084;SDS011;62974;49.460;10.892;2023-08-06T01:01:46;2.00;;;1.17;;
73084;SDS011;62974;49.460;10.892;2023-08-06T01:04:18;2.33;;;1.25;;
73084;SDS011;62974;49.460;10.892;2023-08-06T01:06:47;2.22;;;1.27;;
73084;SDS011;62974;49.460;10.892;2023-08-06T01:09:20;2.13;;;1.17;;
73084;SDS011;62974;49.460;10.892;2023-08-06T01:11:59;2.88;;;1.30;;
73084;SDS011;62974;49.460;10.892;2023-08-06T01:14:36;1.70;;;1.10;;
73084;SDS011;62974;49.460;10.892;2023-08-06T01:17:11;2.10;;;1.38;;
73084;SDS011;62974;49.460;10.892;2023-08-06T01:19:41;1.92;;;1.10;;
73084;SDS011;62974;49.460;10.892;2023-08-06T01:22:10;2.30;;;1.20;;
73084;SDS011;62974;49.460;10.892;2023-08-06T01:24:37;2.63;;;1.35;;
73084;SDS011;62974;49.460;10.892;2023-08-06T01:27:06;2.13;;;1.13;;
73084;SDS011;62974;49.460;10.892;2023-08-06T01:29:39;2.63;;;1.10;;
73084;SDS011;62974;49.460;10.892;2023-08-06T01:32:12;2.47;;;1.17;;
73084;SDS011;62974;49.460;10.892;2023-08-06T01:34:41;1.95;;;1.30;;
73084;SDS011;62974;49.460;10.892;2023-08-06T01:37:13;2.00;;;1.13;;
73084;SDS011;62974;49.460;10.892;2023-08-06T01:39:42;2.30;;;1.30;;
73084;SDS011;62974;49.460;10.892;2023-08-06T01:42:10;3.15;;;1.20;;
73084;SDS011;62974;49.460;10.892;2023-08-06T01:44:37;2.03;;;1.10;;
73084;SDS011;62974;49.460;10.892;2023-08-06T01:47:05;3.17;;;1.20;;
73084;SDS011;62974;49.460;10.892;2023-08-06T01:49:33;1.83;;;1.02;;
73084;SDS011;62974;49.460;10.892;2023-08-06T01:52:00;4.22;;;1.10;;
73084;SDS011;62974;49.460;10.892;2023-08-06T01:54:29;2.17;;;1.08;;
73084;SDS011;62974;49.460;10.892;2023-08-06T01:56:56;3.38;;;1.08;;
73084;SDS011;62974;49.460;10.892;2023-08-06T01:59:24;2.42;;;1.10;;
73084;SDS011;62974;49.460;10.892;2023-08-06T02:01:52;1.38;;;1.00;;
73084;SDS011;62974;49.460;10.892;2023-08-06T02:04:20;1.58;;;1.10;;
73084;SDS011;62974;49.460;10.892;2023-08-06T02:09:16;1.20;;;0.93;;
73084;SDS011;62974;49.460;10.892;2023-08-06T02:11:45;2.05;;;1.00;;
73084;SDS011;62974;49.460;10.892;2023-08-06T02:14:12;2.25;;;1.08;;
73084;SDS011;62974;49.460;10.892;2023-08-06T02:16:40;3.65;;;1.00;;
73084;SDS011;62974;49.460;10.892;2023-08-06T02:19:07;1.52;;;0.90;;
73084;SDS011;62974;49.460;10.892;2023-08-06T02:21:35;1.52;;;0.93;;
73084;SDS011;62974;49.460;10.892;2023-08-06T02:24:03;2.65;;;1.20;;
73084;SDS011;62974;49.460;10.892;2023-08-06T02:26:31;3.85;;;1.10;;
73084;SDS011;62974;49.460;10.892;2023-08-06T02:28:59;3.80;;;1.20;;
73084;SDS011;62974;49.460;10.892;2023-08-06T02:31:27;1.80;;;0.93;;
73084;SDS011;62974;49.460;10.892;2023-08-06T02:33:55;2.45;;;0.95;;
73084;SDS011;62974;49.460;10.892;2023-08-06T02:36:23;3.70;;;1.15;;
73084;SDS011;62974;49.460;10.892;2023-08-06T02:38:50;2.22;;;0.90;;
73084;SDS011;62974;49.460;10.892;2023-08-06T02:41:18;1.30;;;0.88;;
73084;SDS011;62974;49.460;10.892;2023-08-06T02:43:45;2.75;;;1.10;;
73084;SDS011;62974;49.460;10.892;2023-08-06T02:46:14;1.88;;;1.02;;
73084;SDS011;62974;49.460;10.892;2023-08-06T02:48:42;2.70;;;1.30;;
73084;SDS011;62974;49.460;10.892;2023-08-06T02:51:09;2.97;;;1.10;;
73084;SDS011;62974;49.460;10.892;2023-08-06T02:53:37;3.42;;;1.10;;
73084;SDS011;62974;49.460;10.892;2023-08-06T02:56:04;2.47;;;1.00;;
73084;SDS011;62974;49.460;10.892;2023-08-06T02:58:32;1.92;;;1.00;;
73084;SDS011;62974;49.460;10.892;2023-08-06T03:01:00;2.10;;;1.00;;
73084;SDS011;62974;49.460;10.892;2023-08-06T03:03:30;1.95;;;1.20;;
73084;SDS011;62974;49.460;10.892;2023-08-06T03:05:58;3.47;;;1.05;;
73084;SDS011;62974;49.460;10.892;2023-08-06T03:08:26;2.78;;;1.13;;
73084;SDS011;62974;49.460;10.892;2023-08-06T03:10:54;1.92;;;0.95;;
73084;SDS011;62974;49.460;10.892;2023-08-06T03:13:21;2.03;;;1.20;;
73084;SDS011;62974;49.460;10.892;2023-08-06T03:15:52;1.75;;;1.02;;
73084;SDS011;62974;49.460;10.892;2023-08-06T03:18:21;2.75;;;1.17;;
73084;SDS011;62974;49.460;10.892;2023-08-06T03:20:50;1.63;;;1.00;;
73084;SDS011;62974;49.460;10.892;2023-08-06T03:23:17;1.33;;;1.00;;
73084;SDS011;62974;49.460;10.892;2023-08-06T03:25:45;2.75;;;1.02;;
73084;SDS011;62974;49.460;10.892;2023-08-06T03:28:13;2.05;;;1.20;;
73084;SDS011;62974;49.460;10.892;2023-08-06T03:30:41;2.17;;;1.30;;
73084;SDS011;62974;49.460;10.892;2023-08-06T03:33:08;1.70;;;1.17;;
73084;SDS011;62974;49.460;10.892;2023-08-06T03:35:36;2.75;;;1.00;;
73084;SDS011;62974;49.460;10.892;2023-08-06T03:38:05;3.72;;;1.50;;
73084;SDS011;62974;49.460;10.892;2023-08-06T03:40:34;4.18;;;1.30;;
73084;SDS011;62974;49.460;10.892;2023-08-06T03:43:02;2.15;;;1.30;;
73084;SDS011;62974;49.460;10.892;2023-08-06T03:45:29;3.00;;;1.58;;
73084;SDS011;62974;49.460;10.892;2023-08-06T03:47:57;1.67;;;1.15;;
73084;SDS011;62974;49.460;10.892;2023-08-06T03:50:24;1.65;;;1.10;;
73084;SDS011;62974;49.460;10.892;2023-08-06T03:52:52;2.55;;;1.10;;
73084;SDS011;62974;49.460;10.892;2023-08-06T03:55:21;2.50;;;1.20;;
73084;SDS011;62974;49.460;10.892;2023-08-06T03:57:49;1.60;;;0.98;;
73084;SDS011;62974;49.460;10.892;2023-08-06T04:00:16;1.70;;;0.88;;
73084;SDS011;62974;49.460;10.892;2023-08-06T04:02:44;2.08;;;1.20;;
73084;SDS011;62974;49.460;10.892;2023-08-06T04:05:12;2.53;;;1.05;;
73084;SDS011;62974;49.460;10.892;2023-08-06T04:07:39;2.28;;;1.20;;
73084;SDS011;62974;49.460;10.892;2023-08-06T04:10:07;1.73;;;1.10;;
73084;SDS011;62974;49.460;10.892;2023-08-06T04:12:36;2.40;;;0.95;;
73084;SDS011;62974;49.460;10.892;2023-08-06T04:15:06;2.53;;;1.25;;
73084;SDS011;62974;49.460;10.892;2023-08-06T04:17:34;2.50;;;1.20;;
73084;SDS011;62974;49.460;10.892;2023-08-06T04:20:01;1.73;;;1.13;;
73084;SDS011;62974;49.460;10.892;2023-08-06T04:22:29;2.20;;;1.55;;
73084;SDS011;62974;49.460;10.892;2023-08-06T04:24:57;2.00;;;1.30;;
73084;SDS011;62974;49.460;10.892;2023-08-06T04:27:24;2.10;;;1.20;;
73084;SDS011;62974;49.460;10.892;2023-08-06T04:29:54;2.75;;;1.25;;
73084;SDS011;62974;49.460;10.892;2023-08-06T04:32:21;1.65;;;0.93;;
73084;SDS011;62974;49.460;10.892;2023-08-06T04:34:49;3.65;;;1.27;;
73084;SDS011;62974;49.460;10.892;2023-08-06T04:37:16;1.67;;;1.08;;
73084;SDS011;62974;49.460;10.892;2023-08-06T04:39:44;2.22;;;0.95;;
73084;SDS011;62974;49.460;10.892;2023-08-06T04:42:11;2.95;;;1.20;;
73084;SDS011;62974;49.460;10.892;2023-08-06T04:44:39;2.22;;;1.20;;
73084;SDS011;62974;49.460;10.892;2023-08-06T04:47:07;5.72;;;1.63;;
73084;SDS011;62974;49.460;10.892;2023-08-06T04:49:35;2.30;;;1.30;;
73084;SDS011;62974;49.460;10.892;2023-08-06T04:52:03;2.65;;;1.15;;
73084;SDS011;62974;49.460;10.892;2023-08-06T04:54:31;2.53;;;1.30;;
73084;SDS011;62974;49.460;10.892;2023-08-06T04:56:59;2.65;;;1.25;;
73084;SDS011;62974;49.460;10.892;2023-08-06T04:59:26;2.70;;;1.25;;
73084;SDS011;62974;49.460;10.892;2023-08-06T05:01:54;5.00;;;1.45;;
73084;SDS011;62974;49.460;10.892;2023-08-06T05:04:23;4.03;;;1.40;;
73084;SDS011;62974;49.460;10.892;2023-08-06T05:06:51;2.72;;;1.40;;
73084;SDS011;62974;49.460;10.892;2023-08-06T05:09:18;2.17;;;1.20;;
73084;SDS011;62974;49.460;10.892;2023-08-06T05:11:46;3.75;;;1.55;;
73084;SDS011;62974;49.460;10.892;2023-08-06T05:14:14;3.17;;;1.70;;
73084;SDS011;62974;49.460;10.892;2023-08-06T05:16:42;3.42;;;1.70;;
73084;SDS011;62974;49.460;10.892;2023-08-06T05:19:09;3.38;;;1.70;;
73084;SDS011;62974;49.460;10.892;2023-08-06T05:21:38;2.42;;;1.20;;
73084;SDS011;62974;49.460;10.892;2023-08-06T05:24:06;2.55;;;1.52;;
73084;SDS011;62974;49.460;10.892;2023-08-06T05:26:33;3.00;;;1.70;;
73084;SDS011;62974;49.460;10.892;2023-08-06T05:29:01;2.15;;;1.50;;
73084;SDS011;62974;49.460;10.892;2023-08-06T05:31:28;2.03;;;1.38;;
73084;SDS011;62974;49.460;10.892;2023-08-06T05:33:56;3.38;;;1.75;;
73084;SDS011;62974;49.460;10.892;2023-08-06T05:36:24;3.22;;;1.63;;
73084;SDS011;62974;49.460;10.892;2023-08-06T05:38:56;2.70;;;1.50;;
73084;SDS011;62974;49.460;10.892;2023-08-06T05:41:24;3.40;;;1.77;;
73084;SDS011;62974;49.460;10.892;2023-08-06T05:43:51;2.67;;;1.60;;
73084;SDS011;62974;49.460;10.892;2023-08-06T05:46:19;2.90;;;1.50;;
73084;SDS011;62974;49.460;10.892;2023-08-06T05:48:46;4.72;;;1.70;;
73084;SDS011;62974;49.460;10.892;2023-08-06T05:51:14;4.47;;;1.67;;
73084;SDS011;62974;49.460;10.892;2023-08-06T05:56:11;2.17;;;1.30;;
73084;SDS011;62974;49.460;10.892;2023-08-06T05:58:38;4.07;;;1.35;;
73084;SDS011;62974;49.460;10.892;2023-08-06T06:01:06;5.10;;;1.77;;
73084;SDS011;62974;49.460;10.892;2023-08-06T06:03:33;3.28;;;1.85;;
73084;SDS011;62974;49.460;10.892;2023-08-06T06:06:01;3.50;;;1.80;;
73084;SDS011;62974;49.460;10.892;2023-08-06T06:08:28;4.05;;;1.98;;
73084;SDS011;62974;49.460;10.892;2023-08-06T06:10:56;3.92;;;1.75;;
73084;SDS011;62974;49.460;10.892;2023-08-06T06:13:25;2.72;;;1.73;;
73084;SDS011;62974;49.460;10.892;2023-08-06T06:15:53;2.95;;;1.67;;
73084;SDS011;62974;49.460;10.892;2023-08-06T06:18:21;5.00;;;2.00;;
73084;SDS011;62974;49.460;10.892;2023-08-06T06:20:49;3.55;;;1.70;;
73084;SDS011;62974;49.460;10.892;2023-08-06T06:23:16;2.58;;;1.52;;
73084;SDS011;62974;49.460;10.892;2023-08-06T06:25:47;3.55;;;1.98;;
73084;SDS011;62974;49.460;10.892;2023-08-06T06:28:15;4.07;;;2.10;;
73084;SDS011;62974;49.460;10.892;2023-08-06T06:30:44;2.88;;;1.85;;
73084;SDS011;62974;49.460;10.892;2023-08-06T06:33:12;3.42;;;1.55;;
73084;SDS011;62974;49.460;10.892;2023-08-06T06:35:39;2.53;;;1.70;;
73084;SDS011;62974;49.460;10.892;2023-08-06T06:38:07;3.47;;;1.83;;
73084;SDS011;62974;49.460;10.892;2023-08-06T06:40:34;3.85;;;1.80;;
73084;SDS011;62974;49.460;10.892;2023-08-06T06:43:02;3.83;;;1.98;;
73084;SDS011;62974;49.460;10.892;2023-08-06T06:45:29;4.38;;;1.63;;
73084;SDS011;62974;49.460;10.892;2023-08-06T06:47:58;3.95;;;2.00;;
73084;SDS011;62974;49.460;10.892;2023-08-06T06:50:26;4.80;;;1.90;;
73084;SDS011;62974;49.460;10.892;2023-08-06T06:52:53;4.90;;;2.03;;
73084;SDS011;62974;49.460;10.892;2023-08-06T06:55:21;3.20;;;1.73;;
73084;SDS011;62974;49.460;10.892;2023-08-06T06:57:48;4.28;;;2.20;;
73084;SDS011;62974;49.460;10.892;2023-08-06T07:00:16;3.50;;;1.98;;
73084;SDS011;62974;49.460;10.892;2023-08-06T07:02:44;4.60;;;1.90;;
73084;SDS011;62974;49.460;10.892;2023-08-06T07:05:13;5.03;;;2.35;;
73084;SDS011;62974;49.460;10.892;2023-08-06T07:07:40;2.85;;;1.77;;
73084;SDS011;62974;49.460;10.892;2023-08-06T07:10:08;3.30;;;1.65;;
73084;SDS011;62974;49.460;10.892;2023-08-06T07:12:36;3.10;;;1.92;;
73084;SDS011;62974;49.460;10.892;2023-08-06T07:15:04;2.42;;;1.55;;
73084;SDS011;62974;49.460;10.892;2023-08-06T07:17:33;4.28;;;2.00;;
73084;SDS011;62974;49.460;10.892;2023-08-06T07:20:01;2.72;;;1.75;;
73084;SDS011;62974;49.460;10.892;2023-08-06T07:22:30;3.05;;;1.92;;
73084;SDS011;62974;49.460;10.892;2023-08-06T07:24:57;3.45;;;1.65;;
73084;SDS011;62974;49.460;10.892;2023-08-06T07:27:25;2.22;;;1.63;;
73084;SDS011;62974;49.460;10.892;2023-08-06T07:29:52;3.70;;;1.60;;
73084;SDS011;62974;49.460;10.892;2023-08-06T07:32:20;2.58;;;1.40;;
73084;SDS011;62974;49.460;10.892;2023-08-06T07:34:47;2.05;;;1.15;;
73084;SDS011;62974;49.460;10.892;2023-08-06T07:37:15;2.45;;;1.30;;
73084;SDS011;62974;49.460;10.892;2023-08-06T07:39:45;3.90;;;1.65;;
73084;SDS011;62974;49.460;10.892;2023-08-06T07:42:12;3.70;;;1.92;;
73084;SDS011;62974;49.460;10.892;2023-08-06T07:44:40;4.40;;;1.60;;
73084;SDS011;62974;49.460;10.892;2023-08-06T07:47:07;2.85;;;1.70;;
73084;SDS011;62974;49.460;10.892;2023-08-06T07:49:35;3.20;;;1.80;;
73084;SDS011;62974;49.460;10.892;2023-08-06T07:52:03;2.60;;;1.50;;
73084;SDS011;62974;49.460;10.892;2023-08-06T07:54:30;2.53;;;1.60;;
73084;SDS011;62974;49.460;10.892;2023-08-06T07:56:59;2.55;;;1.40;;
73084;SDS011;62974;49.460;10.892;2023-08-06T07:59:27;3.55;;;1.10;;
73084;SDS011;62974;49.460;10.892;2023-08-06T08:01:54;3.67;;;1.20;;
73084;SDS011;62974;49.460;10.892;2023-08-06T08:04:22;1.70;;;0.70;;
73084;SDS011;62974;49.460;10.892;2023-08-06T08:06:50;3.35;;;0.73;;
73084;SDS011;62974;49.460;10.892;2023-08-06T08:09:18;1.02;;;0.32;;
73084;SDS011;62974;49.460;10.892;2023-08-06T08:11:45;0.85;;;0.63;;
73084;SDS011;62974;49.460;10.892;2023-08-06T08:14:14;1.63;;;0.50;;
73084;SDS011;62974;49.460;10.892;2023-08-06T08:16:42;2.45;;;0.70;;
73084;SDS011;62974;49.460;10.892;2023-08-06T08:19:10;1.25;;;0.60;;
73084;SDS011;62974;49.460;10.892;2023-08-06T08:21:37;3.10;;;0.60;;
73084;SDS011;62974;49.460;10.892;2023-08-06T08:24:05;2.45;;;0.40;;
73084;SDS011;62974;49.460;10.892;2023-08-06T08:26:32;0.73;;;0.50;;
73084;SDS011;62974;49.460;10.892;2023-08-06T08:29:00;0.15;;;0.15;;
73084;SDS011;62974;49.460;10.892;2023-08-06T08:31:29;0.57;;;0.28;;
73084;SDS011;62974;49.460;10.892;2023-08-06T08:33:56;0.22;;;0.20;;
73084;SDS011;62974;49.460;10.892;2023-08-06T08:36:25;0.38;;;0.20;;
73084;SDS011;62974;49.460;10.892;2023-08-06T08:38:53;0.20;;;0.20;;
73084;SDS011;62974;49.460;10.892;2023-08-06T08:41:20;0.22;;;0.10;;
73084;SDS011;62974;49.460;10.892;2023-08-06T08:43:48;0.10;;;0.10;;
73084;SDS011;62974;49.460;10.892;2023-08-06T08:46:18;1.45;;;0.30;;
73084;SDS011;62974;49.460;10.892;2023-08-06T08:48:47;0.70;;;0.30;;
73084;SDS011;62974;49.460;10.892;2023-08-06T08:51:15;0.65;;;0.20;;
73084;SDS011;62974;49.460;10.892;2023-08-06T08:53:44;0.40;;;0.32;;
73084;SDS011;62974;49.460;10.892;2023-08-06T08:56:11;1.25;;;0.30;;
73084;SDS011;62974;49.460;10.892;2023-08-06T08:58:40;0.88;;;0.38;;
73084;SDS011;62974;49.460;10.892;2023-08-06T09:01:08;3.70;;;0.68;;
73084;SDS011;62974;49.460;10.892;2023-08-06T09:03:36;0.57;;;0.20;;
73084;SDS011;62974;49.460;10.892;2023-08-06T09:08:34;0.47;;;0.13;;
73084;SDS011;62974;49.460;10.892;2023-08-06T09:11:05;0.28;;;0.10;;
73084;SDS011;62974;49.460;10.892;2023-08-06T09:13:36;1.08;;;0.20;;
73084;SDS011;62974;49.460;10.892;2023-08-06T09:18:32;0.45;;;0.30;;
73084;SDS011;62974;49.460;10.892;2023-08-06T09:20:59;0.40;;;0.20;;
73084;SDS011;62974;49.460;10.892;2023-08-06T09:23:29;0.90;;;0.15;;
73084;SDS011;62974;49.460;10.892;2023-08-06T09:25:57;0.47;;;0.22;;
73084;SDS011;62974;49.460;10.892;2023-08-06T09:28:25;1.27;;;0.30;;
73084;SDS011;62974;49.460;10.892;2023-08-06T09:31:04;1.15;;;0.30;;
73084;SDS011;62974;49.460;10.892;2023-08-06T09:33:32;0.22;;;0.10;;
73084;SDS011;62974;49.460;10.892;2023-08-06T09:36:06;0.28;;;0.20;;
73084;SDS011;62974;49.460;10.892;2023-08-06T09:38:38;1.05;;;0.30;;
73084;SDS011;62974;49.460;10.892;2023-08-06T09:41:07;0.25;;;0.13;;
73084;SDS011;62974;49.460;10.892;2023-08-06T09:43:41;0.45;;;0.22;;
73084;SDS011;62974;49.460;10.892;2023-08-06T09:46:12;0.43;;;0.20;;
73084;SDS011;62974;49.460;10.892;2023-08-06T09:48:44;0.10;;;0.10;;
73084;SDS011;62974;49.460;10.892;2023-08-06T09:51:13;0.30;;;0.20;;
73084;SDS011;62974;49.460;10.892;2023-08-06T09:53:42;0.13;;;0.13;;
73084;SDS011;62974;49.460;10.892;2023-08-06T09:56:11;0.52;;;0.20;;
73084;SDS011;62974;49.460;10.892;2023-08-06T09:58:41;0.20;;;0.20;;
73084;SDS011;62974;49.460;10.892;2023-08-06T10:01:09;0.00;;;0.00;;
73084;SDS011;62974;49.460;10.892;2023-08-06T10:03:39;0.30;;;0.20;;
73084;SDS011;62974;49.460;10.892;2023-08-06T10:06:07;0.60;;;0.32;;
73084;SDS011;62974;49.460;10.892;2023-08-06T10:08:35;0.30;;;0.15;;
73084;SDS011;62974;49.460;10.892;2023-08-06T10:11:05;0.38;;;0.20;;
73084;SDS011;62974;49.460;10.892;2023-08-06T10:13:33;0.13;;;0.13;;
73084;SDS011;62974;49.460;10.892;2023-08-06T10:16:03;0.00;;;0.00;;
73084;SDS011;62974;49.460;10.892;2023-08-06T10:18:32;1.20;;;0.13;;
73084;SDS011;62974;49.460;10.892;2023-08-06T10:21:02;0.80;;;0.17;;
73084;SDS011;62974;49.460;10.892;2023-08-06T10:23:33;0.25;;;0.20;;
73084;SDS011;62974;49.460;10.892;2023-08-06T10:26:05;1.00;;;0.10;;
73084;SDS011;62974;49.460;10.892;2023-08-06T10:28:33;0.03;;;0.03;;
73084;SDS011;62974;49.460;10.892;2023-08-06T10:31:02;0.00;;;0.00;;
73084;SDS011;62974;49.460;10.892;2023-08-06T10:33:40;0.30;;;0.20;;
73084;SDS011;62974;49.460;10.892;2023-08-06T10:36:09;0.80;;;0.28;;
73084;SDS011;62974;49.460;10.892;2023-08-06T10:38:43;0.55;;;0.20;;
73084;SDS011;62974;49.460;10.892;2023-08-06T10:41:23;0.20;;;0.20;;
73084;SDS011;62974;49.460;10.892;2023-08-06T10:44:04;0.47;;;0.20;;
73084;SDS011;62974;49.460;10.892;2023-08-06T10:46:33;0.20;;;0.10;;
73084;SDS011;62974;49.460;10.892;2023-08-06T10:49:01;0.15;;;0.13;;
73084;SDS011;62974;49.460;10.892;2023-08-06T10:51:28;0.20;;;0.10;;
73084;SDS011;62974;49.460;10.892;2023-08-06T10:53:56;0.13;;;0.13;;
73084;SDS011;62974;49.460;10.892;2023-08-06T10:56:26;0.20;;;0.10;;
73084;SDS011;62974;49.460;10.892;2023-08-06T10:58:54;0.10;;;0.10;;
73084;SDS011;62974;49.460;10.892;2023-08-06T11:01:22;0.93;;;0.30;;
73084;SDS011;62974;49.460;10.892;2023-08-06T11:03:51;0.10;;;0.10;;
73084;SDS011;62974;49.460;10.892;2023-08-06T11:06:20;0.10;;;0.10;;
73084;SDS011;62974;49.460;10.892;2023-08-06T11:08:49;0.05;;;0.05;;
73084;SDS011;62974;49.460;10.892;2023-08-06T11:11:18;0.20;;;0.20;;
73084;SDS011;62974;49.460;10.892;2023-08-06T11:13:47;0.32;;;0.20;;
73084;SDS011;62974;49.460;10.892;2023-08-06T11:16:16;0.03;;;0.03;;
73084;SDS011;62974;49.460;10.892;2023-08-06T11:18:46;0.30;;;0.20;;
73084;SDS011;62974;49.460;10.892;2023-08-06T11:21:14;0.10;;;0.10;;
73084;SDS011;62974;49.460;10.892;2023-08-06T11:23:47;0.03;;;0.03;;
73084;SDS011;62974;49.460;10.892;2023-08-06T11:26:18;0.10;;;0.10;;
73084;SDS011;62974;49.460;10.892;2023-08-06T11:28:48;0.65;;;0.17;;
73084;SDS011;62974;49.460;10.892;2023-08-06T11:31:19;0.10;;;0.10;;
73084;SDS011;62974;49.460;10.892;2023-08-06T11:33:48;0.30;;;0.15;;
73084;SDS011;62974;49.460;10.892;2023-08-06T11:36:17;0.22;;;0.10;;
73084;SDS011;62974;49.460;10.892;2023-08-06T11:38:56;0.10;;;0.10;;
73084;SDS011;62974;49.460;10.892;2023-08-06T11:41:23;0.90;;;0.20;;
73084;SDS011;62974;49.460;10.892;2023-08-06T11:43:52;0.00;;;0.00;;
73084;SDS011;62974;49.460;10.892;2023-08-06T11:46:20;0.30;;;0.10;;
73084;SDS011;62974;49.460;10.892;2023-08-06T11:48:52;0.38;;;0.30;;
73084;SDS011;62974;49.460;10.892;2023-08-06T11:51:22;0.20;;;0.20;;
73084;SDS011;62974;49.460;10.892;2023-08-06T11:53:49;0.65;;;0.20;;
73084;SDS011;62974;49.460;10.892;2023-08-06T11:56:17;0.20;;;0.20;;
73084;SDS011;62974;49.460;10.892;2023-08-06T11:58:45;1.20;;;0.10;;
73084;SDS011;62974;49.460;10.892;2023-08-06T12:01:14;0.43;;;0.15;;
73084;SDS011;62974;49.460;10.892;2023-08-06T12:03:42;0.17;;;0.10;;
73084;SDS011;62974;49.460;10.892;2023-08-06T12:06:09;1.15;;;0.20;;
73084;SDS011;62974;49.460;10.892;2023-08-06T12:08:37;0.20;;;0.10;;
73084;SDS011;62974;49.460;10.892;2023-08-06T12:11:05;0.20;;;0.20;;
73084;SDS011;62974;49.460;10.892;2023-08-06T12:13:32;0.32;;;0.20;;
73084;SDS011;62974;49.460;10.892;2023-08-06T12:16:00;0.28;;;0.28;;
73084;SDS011;62974;49.460;10.892;2023-08-06T12:18:29;0.28;;;0.28;;
73084;SDS011;62974;49.460;10.892;2023-08-06T12:20:56;0.25;;;0.20;;
73084;SDS011;62974;49.460;10.892;2023-08-06T12:23:24;0.20;;;0.20;;
73084;SDS011;62974;49.460;10.892;2023-08-06T12:25:52;0.30;;;0.28;;
73084;SDS011;62974;49.460;10.892;2023-08-06T12:28:19;0.28;;;0.20;;
73084;SDS011;62974;49.460;10.892;2023-08-06T12:30:49;0.17;;;0.10;;
73084;SDS011;62974;49.460;10.892;2023-08-06T12:33:20;0.20;;;0.20;;
73084;SDS011;62974;49.460;10.892;2023-08-06T12:35:49;0.85;;;0.28;;
73084;SDS011;62974;49.460;10.892;2023-08-06T12:38:19;0.30;;;0.10;;
73084;SDS011;62974;49.460;10.892;2023-08-06T12:40:46;0.80;;;0.30;;
73084;SDS011;62974;49.460;10.892;2023-08-06T12:43:14;0.50;;;0.20;;
73084;SDS011;62974;49.460;10.892;2023-08-06T12:45:41;0.10;;;0.10;;
73084;SDS011;62974;49.460;10.892;2023-08-06T12:48:09;0.52;;;0.20;;
73084;SDS011;62974;49.460;10.892;2023-08-06T12:50:37;1.08;;;0.10;;
73084;SDS011;62974;49.460;10.892;2023-08-06T12:53:05;0.13;;;0.10;;
73084;SDS011;62974;49.460;10.892;2023-08-06T12:55:33;0.10;;;0.10;;
73084;SDS011;62974;49.460;10.892;2023-08-06T12:58:01;0.30;;;0.05;;
73084;SDS011;62974;49.460;10.892;2023-08-06T13:00:28;0.08;;;0.08;;
73084;SDS011;62974;49.460;10.892;2023-08-06T13:02:56;0.28;;;0.20;;
73084;SDS011;62974;49.460;10.892;2023-08-06T13:05:23;0.10;;;0.10;;
73084;SDS011;62974;49.460;10.892;2023-08-06T13:07:51;0.08;;;0.08;;
73084;SDS011;62974;49.460;10.892;2023-08-06T13:10:20;0.10;;;0.10;;
73084;SDS011;62974;49.460;10.892;2023-08-06T13:12:49;0.15;;;0.10;;
73084;SDS011;62974;49.460;10.892;2023-08-06T13:15:16;0.10;;;0.10;;
73084;SDS011;62974;49.460;10.892;2023-08-06T13:17:50;0.10;;;0.10;;
73084;SDS011;62974;49.460;10.892;2023-08-06T13:20:17;1.25;;;0.10;;
73084;SDS011;62974;49.460;10.892;2023-08-06T13:22:46;0.00;;;0.00;;
73084;SDS011;62974;49.460;10.892;2023-08-06T13:25:16;0.05;;;0.03;;
73084;SDS011;62974;49.460;10.892;2023-08-06T13:27:46;2.13;;;0.20;;
73084;SDS011;62974;49.460;10.892;2023-08-06T13:30:13;0.30;;;0.10;;
73084;SDS011;62974;49.460;10.892;2023-08-06T13:32:41;0.10;;;0.10;;
73084;SDS011;62974;49.460;10.892;2023-08-06T13:35:09;3.10;;;0.10;;
73084;SDS011;62974;49.460;10.892;2023-08-06T13:37:36;0.10;;;0.10;;
73084;SDS011;62974;49.460;10.892;2023-08-06T13:40:05;0.00;;;0.00;;
73084;SDS011;62974;49.460;10.892;2023-08-06T13:42:34;0.10;;;0.10;;
73084;SDS011;62974;49.460;10.892;2023-08-06T13:45:04;0.00;;;0.00;;
73084;SDS011;62974;49.460;10.892;2023-08-06T13:47:32;0.00;;;0.00;;
73084;SDS011;62974;49.460;10.892;2023-08-06T13:50:00;0.00;;;0.00;;
73084;SDS011;62974;49.460;10.892;2023-08-06T13:52:27;0.10;;;0.10;;
73084;SDS011;62974;49.460;10.892;2023-08-06T13:54:55;0.00;;;0.00;;
73084;SDS011;62974;49.460;10.892;2023-08-06T13:57:22;0.22;;;0.10;;
73084;SDS011;62974;49.460;10.892;2023-08-06T13:59:50;0.22;;;0.13;;
73084;SDS011;62974;49.460;10.892;2023-08-06T14:02:19;1.00;;;0.10;;
73084;SDS011;62974;49.460;10.892;2023-08-06T14:04:48;0.10;;;0.08;;
73084;SDS011;62974;49.460;10.892;2023-08-06T14:07:15;0.10;;;0.10;;
73084;SDS011;62974;49.460;10.892;2023-08-06T14:09:43;0.22;;;0.10;;
73084;SDS011;62974;49.460;10.892;2023-08-06T14:12:13;0.00;;;0.00;;
73084;SDS011;62974;49.460;10.892;2023-08-06T14:14:40;0.25;;;0.15;;
73084;SDS011;62974;49.460;10.892;2023-08-06T14:17:08;0.20;;;0.10;;
73084;SDS011;62974;49.460;10.892;2023-08-06T14:19:37;0.20;;;0.08;;
73084;SDS011;62974;49.460;10.892;2023-08-06T14:22:05;0.03;;;0.00;;
73084;SDS011;62974;49.460;10.892;2023-08-06T14:24:33;0.20;;;0.10;;
73084;SDS011;62974;49.460;10.892;2023-08-06T14:27:00;0.10;;;0.10;;
73084;SDS011;62974;49.460;10.892;2023-08-06T14:29:30;0.10;;;0.10;;
73084;SDS011;62974;49.460;10.892;2023-08-06T14:31:57;0.13;;;0.08;;
73084;SDS011;62974;49.460;10.892;2023-08-06T14:34:25;0.52;;;0.32;;
73084;SDS011;62974;49.460;10.892;2023-08-06T14:36:55;0.00;;;0.00;;
73084;SDS011;62974;49.460;10.892;2023-08-06T14:39:22;0.00;;;0.00;;
73084;SDS011;62974;49.460;10.892;2023-08-06T14:41:50;0.20;;;0.20;;
73084;SDS011;62974;49.460;10.892;2023-08-06T14:44:17;0.15;;;0.10;;
73084;SDS011;62974;49.460;10.892;2023-08-06T14:46:45;0.50;;;0.40;;
73084;SDS011;62974;49.460;10.892;2023-08-06T14:49:13;0.20;;;0.20;;